createdAt,value
2022-08-11T05:36:59.171Z,99.90
2022-08-11T05:42:45.095Z,99.90
2022-08-11T05:45:52.727Z,99.90
2022-08-11T05:48:40.797Z,99.90
2022-08-11T05:51:30.341Z,99.90
2022-08-11T05:54:29.365Z,99.90
2022-08-11T05:57:01.510Z,99.90
2022-08-11T05:59:33.653Z,99.90
2022-08-11T06:02:04.458Z,99.90
2022-08-11T06:04:34.256Z,99.90
2022-08-11T06:07:09.067Z,99.90
2022-08-11T06:09:50.847Z,99.90
2022-08-11T06:12:23.125Z,99.90
2022-08-11T06:14:57.364Z,99.30
2022-08-11T06:17:38.957Z,99.90
2022-08-11T06:20:13.319Z,98.30
2022-08-11T06:22:48.521Z,97.10
2022-08-11T06:25:20.042Z,96.30
2022-08-11T06:27:56.564Z,95.00
2022-08-11T06:30:39.955Z,95.20
2022-08-11T06:33:12.442Z,93.90
2022-08-11T06:35:57.355Z,93.60
2022-08-11T06:38:51.656Z,92.30
2022-08-11T06:41:33.513Z,91.50
2022-08-11T06:44:16.513Z,91.30
2022-08-11T06:46:51.036Z,90.40
2022-08-11T06:49:38.275Z,89.40
2022-08-11T06:52:34.160Z,87.10
2022-08-11T06:55:06.644Z,84.80
2022-08-11T06:57:55.554Z,84.30
2022-08-11T07:00:33.164Z,81.70
2022-08-11T07:03:09.613Z,81.00
2022-08-11T07:05:47.069Z,77.20
2022-08-11T07:09:14.116Z,76.90
2022-08-11T07:12:21.389Z,78.10
2022-08-11T07:15:11.873Z,74.10
2022-08-11T07:17:49.700Z,73.70
2022-08-11T07:20:37.816Z,69.50
2022-08-11T07:23:27.517Z,68.70
2022-08-11T07:26:18.475Z,71.30
2022-08-11T07:28:59.337Z,68.10
2022-08-11T07:31:37.447Z,63.30
2022-08-11T07:34:21.696Z,63.30
2022-08-11T07:36:55.810Z,61.60
2022-08-11T07:39:28.176Z,59.10
2022-08-11T07:41:59.776Z,58.60
2022-08-11T07:44:34.808Z,56.70
2022-08-11T07:47:22.126Z,57.40
2022-08-11T07:50:10.868Z,55.00
2022-08-11T07:52:41.829Z,56.70
2022-08-11T07:55:15.112Z,55.50
2022-08-11T07:58:16.224Z,55.30
2022-08-11T08:01:22.171Z,54.70
2022-08-11T08:04:09.735Z,53.00
2022-08-11T08:06:56.884Z,52.60
2022-08-11T08:09:44.951Z,52.70
2022-08-11T08:12:32.314Z,51.30
2022-08-11T08:15:20.071Z,51.00
2022-08-11T08:18:20.921Z,51.00
2022-08-11T08:20:50.307Z,50.20
2022-08-11T08:23:33.673Z,50.50
2022-08-11T08:26:28.345Z,49.00
2022-08-11T08:32:21.944Z,48.40
2022-08-11T08:34:53.206Z,48.60
2022-08-11T08:37:47.107Z,47.20
2022-08-11T08:40:15.643Z,47.40
2022-08-11T08:42:53.864Z,46.20
2022-08-11T08:45:23.689Z,46.00
2022-08-11T08:48:00.489Z,44.60
2022-08-11T08:50:48.529Z,45.10
2022-08-11T08:53:24.426Z,44.70
2022-08-11T08:55:57.029Z,44.50
2022-08-11T08:58:28.311Z,45.60
2022-08-11T09:00:59.820Z,45.30
2022-08-11T09:03:40.950Z,44.70
2022-08-11T09:06:18.966Z,45.30
2022-08-11T09:08:51.856Z,43.10
2022-08-11T09:11:42.607Z,44.10
2022-08-11T09:14:15.231Z,44.30
2022-08-11T09:16:45.189Z,45.20
2022-08-11T09:19:17.705Z,42.80
2022-08-11T09:22:11.699Z,43.40
2022-08-11T09:24:59.700Z,43.20
2022-08-11T09:27:29.160Z,43.00
2022-08-11T09:30:00.139Z,42.50
2022-08-11T09:35:04.957Z,42.40
2022-08-11T09:37:54.761Z,42.20
2022-08-11T09:40:33.879Z,41.40
2022-08-11T09:43:23.065Z,43.30
2022-08-11T09:45:55.406Z,41.10
2022-08-11T09:48:26.052Z,42.30
2022-08-11T09:50:57.709Z,40.70
2022-08-11T09:53:36.145Z,41.40
2022-08-11T09:56:30.810Z,40.90
2022-08-11T09:59:01.047Z,41.00
2022-08-11T10:01:36.003Z,40.80
2022-08-11T10:04:10.317Z,41.10
2022-08-11T10:06:59.040Z,41.90
2022-08-11T10:09:28.638Z,40.70
2022-08-11T10:11:59.889Z,40.50
2022-08-11T10:14:49.184Z,41.40
2022-08-11T10:17:23.148Z,39.50
2022-08-11T10:20:05.349Z,40.80
2022-08-11T10:22:54.279Z,40.40
2022-08-11T10:25:41.287Z,40.30
2022-08-11T10:28:32.744Z,40.30
2022-08-11T10:31:18.715Z,39.50
2022-08-11T10:34:01.930Z,38.60
2022-08-11T10:36:33.186Z,38.70
2022-08-11T10:39:05.586Z,39.20
2022-08-11T10:42:07.396Z,39.90
2022-08-11T10:44:41.746Z,40.00
2022-08-11T10:47:31.100Z,39.10
2022-08-11T10:50:25.220Z,38.40
2022-08-11T10:53:14.116Z,39.50
2022-08-11T10:56:06.183Z,39.30
2022-08-11T10:58:50.338Z,39.30
2022-08-11T11:01:24.108Z,37.50
2022-08-11T11:03:54.275Z,38.00
2022-08-11T11:06:30.079Z,38.40
2022-08-11T11:09:05.108Z,39.00
2022-08-11T11:11:56.364Z,39.30
2022-08-11T11:14:50.787Z,38.50
2022-08-11T11:17:47.868Z,39.10
2022-08-11T11:20:34.542Z,36.90
2022-08-11T11:23:11.694Z,39.40
2022-08-11T11:26:11.549Z,38.50
2022-08-11T11:29:12.127Z,38.00
2022-08-11T11:31:55.324Z,38.80
2022-08-11T11:34:53.434Z,38.10
2022-08-11T11:37:25.200Z,37.10
2022-08-11T11:39:57.778Z,37.60
2022-08-11T11:42:27.495Z,36.70
2022-08-11T11:44:59.437Z,37.50
2022-08-11T11:47:31.709Z,37.30
2022-08-11T11:50:01.574Z,37.10
2022-08-11T11:52:30.836Z,36.90
2022-08-11T11:55:02.196Z,37.70
2022-08-11T11:57:58.612Z,38.20
2022-08-11T12:00:47.988Z,37.10
2022-08-11T12:03:18.092Z,38.10
2022-08-11T12:05:48.565Z,36.80
2022-08-11T12:08:18.867Z,36.60
2022-08-11T12:10:51.233Z,35.20
2022-08-11T12:13:37.915Z,35.00
2022-08-11T12:16:34.073Z,35.60
2022-08-11T12:18:59.596Z,35.70
2022-08-11T12:21:30.000Z,36.30
2022-08-11T12:24:19.959Z,36.50
2022-08-11T12:27:15.634Z,33.30
2022-08-11T12:29:54.506Z,35.00
2022-08-11T12:32:27.175Z,34.00
2022-08-11T12:35:02.479Z,34.40
2022-08-11T12:37:38.546Z,32.30
2022-08-11T12:40:43.517Z,33.10
2022-08-11T12:43:39.762Z,35.60
2022-08-11T12:46:11.330Z,33.50
2022-08-11T12:49:04.094Z,33.60
2022-08-11T12:52:12.551Z,34.80
2022-08-11T12:54:52.071Z,34.50
2022-08-11T12:57:44.556Z,35.00
2022-08-11T13:00:34.417Z,36.00
2022-08-11T13:03:22.748Z,35.30
2022-08-11T13:05:54.895Z,34.90
2022-08-11T13:08:25.189Z,33.80
2022-08-11T13:11:14.179Z,34.30
2022-08-11T13:13:55.042Z,35.90
2022-08-11T13:16:30.560Z,36.40
2022-08-11T13:19:01.291Z,35.30
2022-08-11T13:21:31.709Z,35.00
2022-08-11T13:24:03.489Z,34.00
2022-08-11T13:26:46.598Z,34.60
2022-08-11T13:31:54.092Z,34.20
2022-08-11T13:34:25.440Z,34.80
2022-08-11T13:36:57.398Z,35.00
2022-08-11T13:39:28.716Z,35.00
2022-08-11T13:41:59.704Z,34.90
2022-08-11T13:44:31.254Z,35.60
2022-08-11T13:47:04.939Z,35.60
2022-08-11T13:49:36.517Z,36.30
2022-08-11T13:52:13.486Z,35.30
2022-08-11T13:54:43.234Z,33.60
2022-08-11T13:58:06.506Z,34.30
2022-08-11T14:00:23.539Z,34.80
2022-08-11T14:02:59.192Z,34.50
2022-08-11T14:05:30.709Z,34.10
2022-08-11T14:08:02.831Z,35.50
2022-08-11T14:10:35.293Z,33.90
2022-08-11T14:13:26.126Z,35.40
2022-08-11T14:15:57.565Z,35.40
2022-08-11T14:18:30.230Z,35.20
2022-08-11T14:21:18.912Z,34.50
2022-08-11T14:23:50.607Z,35.20
2022-08-11T14:26:26.531Z,35.80
2022-08-11T14:28:57.832Z,35.60
2022-08-11T14:31:28.799Z,35.00
2022-08-11T14:34:02.839Z,35.70
2022-08-11T14:36:35.655Z,35.20
2022-08-11T14:39:08.674Z,35.20
2022-08-11T14:42:10.607Z,35.50
2022-08-11T14:45:17.350Z,35.10
2022-08-11T14:47:52.491Z,34.30
2022-08-11T14:50:28.293Z,34.70
2022-08-11T14:53:01.247Z,34.70
2022-08-11T14:55:51.815Z,35.20
2022-08-11T14:58:23.491Z,35.20
2022-08-11T15:00:55.142Z,35.50
2022-08-11T15:03:28.345Z,34.90
2022-08-11T15:06:02.521Z,35.30
2022-08-11T15:08:50.414Z,35.10
2022-08-11T15:11:53.489Z,35.10
2022-08-11T15:14:58.190Z,35.30
2022-08-11T15:17:43.040Z,35.50
2022-08-11T15:20:32.395Z,34.30
2022-08-11T15:23:20.311Z,34.50
2022-08-11T15:25:54.685Z,35.00
2022-08-11T15:28:42.254Z,35.20
2022-08-11T15:31:38.891Z,34.40
2022-08-11T15:34:28.337Z,35.00
2022-08-11T15:37:16.708Z,35.00
2022-08-11T15:40:32.251Z,35.40
2022-08-11T15:43:27.026Z,35.10
2022-08-11T15:46:02.596Z,36.60
2022-08-11T15:48:40.615Z,35.80
2022-08-11T15:51:13.204Z,35.90
2022-08-11T15:53:56.582Z,35.40
2022-08-11T15:56:30.636Z,35.40
2022-08-11T15:59:43.296Z,35.50
2022-08-11T16:02:28.240Z,34.70
2022-08-11T16:04:58.269Z,34.90
2022-08-11T16:07:31.321Z,35.70
2022-08-11T16:10:09.436Z,34.30
2022-08-11T16:13:26.979Z,34.30
2022-08-11T16:16:17.347Z,34.00
2022-08-11T16:18:51.798Z,34.20
2022-08-11T16:21:26.025Z,35.00
2022-08-11T16:24:08.989Z,34.60
2022-08-11T16:27:08.913Z,35.60
2022-08-11T16:29:50.054Z,35.90
2022-08-11T16:32:23.715Z,35.30
2022-08-11T16:35:16.406Z,34.80
2022-08-11T16:38:04.559Z,34.80
2022-08-11T16:40:35.231Z,33.70
2022-08-11T16:43:25.678Z,35.20
2022-08-11T16:46:14.881Z,34.30
2022-08-11T16:48:45.335Z,35.70
2022-08-11T16:51:16.307Z,34.80
2022-08-11T16:54:05.169Z,34.20
2022-08-11T16:57:32.828Z,35.30
2022-08-11T17:00:05.165Z,35.00
2022-08-11T17:03:00.441Z,36.00
2022-08-11T17:05:53.912Z,35.70
2022-08-11T17:08:56.673Z,35.70
2022-08-11T17:11:46.307Z,36.30
2022-08-11T17:14:18.468Z,36.60
2022-08-11T17:17:07.633Z,36.70
2022-08-11T17:20:41.593Z,35.80
2022-08-11T17:22:50.769Z,37.60
2022-08-11T17:25:20.760Z,37.30
2022-08-11T17:27:52.214Z,37.30
2022-08-11T17:30:21.895Z,37.30
2022-08-11T17:33:10.326Z,38.00
2022-08-11T17:35:44.871Z,37.50
2022-08-11T17:38:29.122Z,37.80
2022-08-11T17:41:23.934Z,38.40
2022-08-11T17:44:13.054Z,38.40
2022-08-11T17:47:05.137Z,38.10
2022-08-11T17:49:37.858Z,38.80
2022-08-11T17:52:29.732Z,38.90
2022-08-11T17:55:50.959Z,38.80
2022-08-11T17:58:26.111Z,40.00
2022-08-11T18:00:56.174Z,41.30
2022-08-11T18:03:33.250Z,39.30
2022-08-11T18:06:04.916Z,40.20
2022-08-11T18:08:55.269Z,42.30
2022-08-11T18:12:10.506Z,41.10
2022-08-11T18:14:54.479Z,42.30
2022-08-11T18:17:41.285Z,43.50
2022-08-11T18:20:28.528Z,43.50
2022-08-11T18:23:14.914Z,43.50
2022-08-11T18:26:07.792Z,44.60
2022-08-11T18:28:58.415Z,43.30
2022-08-11T18:31:49.001Z,43.60
2022-08-11T18:34:57.288Z,44.20
2022-08-11T18:37:46.531Z,44.30
2022-08-11T18:40:37.957Z,44.30
2022-08-11T18:43:29.300Z,44.70
2022-08-11T18:46:20.273Z,45.50
2022-08-11T18:49:14.941Z,45.30
2022-08-11T18:52:06.226Z,46.80
2022-08-11T18:54:55.890Z,46.20
2022-08-11T18:57:49.817Z,47.60
2022-08-11T19:00:42.166Z,46.30
2022-08-11T19:03:30.662Z,47.50
2022-08-11T19:06:39.170Z,48.20
2022-08-11T19:09:28.745Z,48.80
2022-08-11T19:12:17.142Z,49.00
2022-08-11T19:15:05.153Z,50.20
2022-08-11T19:17:55.476Z,50.10
2022-08-11T19:20:44.399Z,50.60
2022-08-11T19:23:33.710Z,52.40
2022-08-11T19:26:22.006Z,52.50
2022-08-11T19:29:09.173Z,52.50
2022-08-11T19:32:17.483Z,53.80
2022-08-11T19:35:07.271Z,54.80
2022-08-11T19:37:55.037Z,54.90
2022-08-11T19:40:41.408Z,56.20
2022-08-11T19:43:28.761Z,57.20
2022-08-11T19:46:18.323Z,57.60
2022-08-11T19:49:14.136Z,58.30
2022-08-11T19:52:03.382Z,57.00
2022-08-11T19:54:51.518Z,58.80
2022-08-11T19:57:40.110Z,59.80
2022-08-11T20:00:30.839Z,60.10
2022-08-11T20:03:18.512Z,60.60
2022-08-11T20:06:06.184Z,60.60
2022-08-11T20:08:58.626Z,61.70
2022-08-11T20:11:49.116Z,61.40
2022-08-11T20:14:36.649Z,62.70
2022-08-11T20:17:24.047Z,63.50
2022-08-11T20:20:11.316Z,63.50
2022-08-11T20:22:58.637Z,64.20
2022-08-11T20:25:47.632Z,63.60
2022-08-11T20:28:36.374Z,63.70
2022-08-11T20:31:24.690Z,65.30
2022-08-11T20:34:10.913Z,66.00
2022-08-11T20:36:58.172Z,65.90
2022-08-11T20:39:46.599Z,67.00
2022-08-11T20:42:34.952Z,67.00
2022-08-11T20:45:23.956Z,67.60
2022-08-11T20:48:14.771Z,68.20
2022-08-11T20:51:05.918Z,68.40
2022-08-11T20:53:54.164Z,69.40
2022-08-11T20:56:43.126Z,68.60
2022-08-11T20:59:33.386Z,70.70
